• Join FlightAware (Why Join?)
  • Login
  • US Flag 
10:54PM EDT


 

Airport Tracker/Info


-or-


 

Live Flight TrackerFlight Track Log ✈ SWA1319 ✈ 23-Apr-2013 ✈ KBHM - KDAL

Flight Track Log - Related Links

Times and Time Zones

All times are in EDT time to prevent confusion due to time zone crossing. See the SWA1319 flight status page for this flight to view local times or setup timezone preferences in your user account.

Time Position Orientation Groundspeed Altitude Reporting Facility
EDT Latitude Longitude Course Direction KTS MPH feet Rate Location/Type
01:25PM 33.6361 -86.7061 23° Northeast 259 298 4,800  Level Atlanta Center
01:26PM 33.6792 -86.7397 327° Northwest 283 326 7,400 2,760 Climbing Atlanta Center
01:27PM 33.6792 -86.8322 270° West 238 274 10,100 2,220 Climbing Atlanta Center
01:28PM 33.6642 -86.9414 261° West 278 320 11,900 2,340 Climbing Atlanta Center
01:29PM 33.6528 -87.0608 263° West 329 379 14,800 2,580 Climbing Atlanta Center
01:31PM 33.6219 -87.3189 262° West 386 444 19,400 2,160 Climbing Memphis Center
01:32PM 33.6103 -87.4314 263° West 397 457 21,100 1,740 Climbing Memphis Center
01:33PM 33.5944 -87.5667 262° West 402 463 22,900 1,560 Climbing Memphis Center
01:34PM 33.5786 -87.7042 262° West 412 474 24,300 1,620 Climbing Memphis Center
01:35PM 33.5628 -87.8419 262° West 417 480 26,200 1,920 Climbing Memphis Center
01:36PM 33.5486 -87.9744 263° West 417 480 28,200 900 Climbing Memphis Center
01:37PM 33.5303 -88.1119 261° West 417 480 28,000 -120 Descending Memphis Center
01:38PM 33.5183 -88.2517 264° West 422 486 28,000  Level Memphis Center
01:39PM 33.5017 -88.3842 261° West 422 486 28,000  Level Memphis Center
01:40PM 33.4869 -88.5192 263° West 422 486 28,000  Level Memphis Center
01:41PM 33.4828 -88.6611 268° West 422 486 28,000  Level Memphis Center
01:42PM 33.4844 -88.8006 271° West 422 486 28,000  Level Memphis Center
01:43PM 33.4844 -88.9550 270° West 422 486 28,000  Level Memphis Center
01:44PM 33.4817 -89.0969 269° West 422 486 28,000  Level Memphis Center
01:45PM 33.4789 -89.2364 269° West 422 486 28,000  Level Memphis Center
01:46PM 33.4800 -89.3733 271° West 422 486 28,000  Level Memphis Center
01:47PM 33.4769 -89.5131 269° West 422 486 28,000  Level Memphis Center
01:48PM 33.4736 -89.6525 268° West 422 486 28,000  Level Memphis Center
01:49PM 33.4722 -89.7894 269° West 422 486 28,000  Level Memphis Center
01:50PM 33.4706 -89.9289 269° West 422 486 28,000  Level Memphis Center
01:51PM 33.4669 -90.0683 268° West 422 486 28,000  Level Memphis Center
01:52PM 33.4650 -90.2053 269° West 422 486 28,000  Level Memphis Center
01:53PM 33.4381 -90.3272 255° West 422 486 28,000  Level Memphis Center
01:54PM 33.3775 -90.4442 238° Southwest 414 476 28,000  Level Memphis Center
01:55PM 33.3125 -90.5636 237° Southwest 414 476 28,000  Level Memphis Center
01:56PM 33.2478 -90.6825 237° Southwest 427 491 28,000  Level Memphis Center
01:57PM 33.1867 -90.7992 238° Southwest 427 491 28,000  Level Memphis Center
01:58PM 33.1217 -90.9178 237° Southwest 432 497 28,000  Level Memphis Center
01:59PM 33.0606 -91.0339 238° Southwest 432 497 28,000  Level Memphis Center
02:00PM 32.9972 -91.1525 238° Southwest 432 497 28,000  Level Memphis Center
02:01PM 32.9317 -91.2706 237° Southwest 432 497 28,000  Level Memphis Center
02:03PM 32.7917 -91.5300 237° Southwest 423 487 28,000  Level Fort Worth Center
02:04PM 32.7628 -91.6703 256° West 423 487 28,000  Level Fort Worth Center
02:05PM 32.7478 -91.7994 262° West 416 479 28,000  Level Fort Worth Center
02:06PM 32.7422 -91.9086 267° West 407 468 28,000  Level Fort Worth Center
02:07PM 32.7258 -92.0600 263° West 418 481 28,000  Level Fort Worth Center
02:08PM 32.7106 -92.1967 262° West 423 487 28,000  Level Fort Worth Center
02:09PM 32.6975 -92.3333 264° West 423 487 28,000  Level Fort Worth Center
02:10PM 32.6819 -92.4700 262° West 428 493 28,000  Level Fort Worth Center
02:11PM 32.6664 -92.6064 262° West 428 493 28,000  Level Fort Worth Center
02:12PM 32.6547 -92.7378 264° West 420 483 28,000  Level Fort Worth Center
02:13PM 32.6389 -92.8742 262° West 420 483 28,000  Level Fort Worth Center
02:14PM 32.6228 -93.0083 262° West 415 478 28,000  Level Fort Worth Center
02:15PM 32.6064 -93.1422 262° West 415 478 28,000  Level Fort Worth Center
02:16PM 32.5919 -93.2736 263° West 410 472 28,000  Level Fort Worth Center
02:17PM 32.5756 -93.4050 262° West 410 472 28,000  Level Fort Worth Center
02:18PM 32.5608 -93.5386 263° West 410 472 28,000  Level Fort Worth Center
02:19PM 32.5458 -93.6675 262° West 410 472 28,000  Level Fort Worth Center
02:20PM 32.5311 -93.8011 263° West 410 472 28,000  Level Fort Worth Center
02:21PM 32.5161 -93.9322 262° West 410 472 28,000  Level Fort Worth Center
02:22PM 32.4986 -94.0636 261° West 410 472 28,000  Level Fort Worth Center
02:23PM 32.4833 -94.1922 262° West 410 472 28,000  Level Fort Worth Center
02:24PM 32.4678 -94.3233 262° West 410 472 28,000  Level Fort Worth Center
02:25PM 32.4500 -94.4517 261° West 405 466 28,000 -420 Level Fort Worth Center
02:26PM 32.4342 -94.5828 262° West 410 472 27,200 -900 Descending Fort Worth Center
02:27PM 32.4206 -94.7186 263° West 415 478 26,200 -1,020 Descending Fort Worth Center
02:28PM 32.4003 -94.8494 260° West 415 478 25,200 -1,020 Descending Fort Worth Center
02:29PM 32.3819 -94.9853 261° West 410 472 24,200 -660 Descending Fort Worth Center
02:30PM 32.3617 -95.1311 261° West 410 472 23,900 -840 Descending Fort Worth Center
02:31PM 32.3392 -95.2644 259° West 410 472 22,600 -1,140 Descending Fort Worth Center
02:32PM 32.3200 -95.3778 259° West 378 435 21,700 -1,140 Descending Fort Worth Center
02:33PM 32.3050 -95.4767 260° West 334 384 20,400 -1,500 Descending Fort Worth Center
02:34PM 32.3231 -95.5672 283° West 273 314 18,700 -1,260 Descending Fort Worth Center
02:35PM 32.3536 -95.6672 290° West 302 348 17,900 -840 Descending Fort Worth Center
02:36PM 32.3886 -95.7750 291° West 338 389 17,100 -960 Descending Fort Worth Center
02:37PM 32.4211 -95.8800 290° West 348 400 16,000 -1,080 Descending Fort Worth Center
02:38PM 32.4536 -95.9881 290° West 348 400 15,000 -1,500 Descending Fort Worth Center
02:39PM 32.4819 -96.0811 290° West 342 394 13,100 -2,100 Descending Fort Worth Center
02:40PM 32.5186 -96.1939 291° West 342 394 10,800 -1,560 Descending Fort Worth Center
02:41PM 32.5464 -96.2822 290° West 331 381 10,000 -1,020 Descending Fort Worth Center
02:42PM 32.5767 -96.3828 290° West 306 352 8,800 -900 Descending Fort Worth Center
02:43PM 32.6003 -96.4592 290° West 286 329 8,300 -600 Descending Fort Worth Center
02:44PM 32.6258 -96.5353 292° West 243 280 7,700 -960 Descending Fort Worth Center
02:45PM 32.6408 -96.5967 286° West 222 255 6,400 -1,440 Descending Fort Worth Center
02:46PM 32.6789 -96.6681 302° West 222 255 4,900 -1,440 Descending Fort Worth Center
02:47PM 32.7167 -96.7000 325° Northwest 241 277 4,100 -1,080 Descending Dallas / Fort Worth TRACON
02:48PM 32.7500 -96.7500 308° West 222 255 3,200 -1,140 Descending Dallas / Fort Worth TRACON
02:49PM 32.7833 -96.8000 308° West 159 183 1,900 -1,140 Descending Dallas / Fort Worth TRACON
02:50PM 32.8167 -96.8167 337° Northwest 133 153 1,000 -900 Descending Dallas / Fort Worth TRACON
02:56PM 32.8471 -96.8518 310° West  Level Estimated
03:03PM 32.8471 -96.8518 132° Southeast  Level Estimated
03:04PM 32.8471 -96.8518 132° Southeast  Level Estimated
03:05PM 32.8471 -96.8518 132° Southeast  Level Estimated
03:06PM 32.8471 -96.8518 132° Southeast  Level Estimated